createdAt,value
2018-03-01T00:02:09.175Z,18.40
2018-03-01T00:04:36.143Z,21.50
2018-03-01T00:07:03.046Z,19.17
2018-03-01T00:09:29.241Z,20.30
2018-03-01T00:11:55.404Z,15.87
2018-03-01T00:14:21.557Z,23.13
2018-03-01T00:16:48.467Z,21.93
2018-03-01T00:19:14.641Z,20.03
2018-03-01T00:21:41.521Z,22.40
2018-03-01T00:24:07.704Z,23.90
2018-03-01T00:26:34.617Z,18.87
2018-03-01T00:29:00.817Z,27.07
2018-03-01T00:31:26.983Z,23.47
2018-03-01T00:33:53.132Z,17.47
2018-03-01T00:36:20.082Z,19.40
2018-03-01T00:38:46.986Z,18.33
2018-03-01T00:41:13.152Z,26.57
2018-03-01T00:43:40.097Z,17.40
2018-03-01T00:46:06.260Z,26.50
2018-03-01T00:48:32.384Z,20.27
2018-03-01T00:50:58.605Z,21.13
2018-03-01T00:53:24.792Z,19.87
2018-03-01T00:55:51.750Z,22.53
2018-03-01T00:58:18.706Z,24.00
2018-03-01T01:00:44.887Z,19.73
2018-03-01T01:03:11.043Z,18.70
2018-03-01T01:05:37.954Z,20.40
2018-03-01T01:08:04.136Z,24.03
2018-03-01T01:10:30.372Z,19.97
2018-03-01T01:12:56.529Z,18.07
2018-03-01T01:15:22.708Z,19.57
2018-03-01T01:17:48.910Z,21.73
2018-03-01T01:20:15.826Z,18.37
2018-03-01T01:22:42.030Z,25.30
2018-03-01T01:25:08.209Z,21.00
2018-03-01T01:27:34.384Z,29.77
2018-03-01T01:30:00.619Z,18.50
2018-03-01T01:32:26.859Z,18.17
2018-03-01T01:34:53.107Z,27.97
2018-03-01T01:37:19.285Z,17.90
2018-03-01T01:39:45.447Z,18.73
2018-03-01T01:42:11.655Z,18.47
2018-03-01T01:44:37.801Z,22.07
2018-03-01T01:47:03.995Z,18.70
2018-03-01T01:49:30.202Z,16.73
2018-03-01T01:51:57.138Z,23.70
2018-03-01T01:54:23.284Z,13.03
2018-03-01T01:56:50.215Z,18.67
2018-03-01T01:59:17.171Z,18.50
2018-03-01T02:01:43.358Z,23.27
2018-03-01T02:04:09.504Z,19.87
2018-03-01T02:06:35.684Z,19.77
2018-03-01T02:09:01.903Z,15.33
2018-03-01T02:11:28.075Z,25.93
2018-03-01T02:13:54.256Z,19.70
2018-03-01T02:16:20.482Z,19.40
2018-03-01T02:18:46.635Z,19.20
2018-03-01T02:21:12.797Z,19.93
2018-03-01T02:23:39.683Z,20.90
2018-03-01T02:26:05.851Z,20.67
2018-03-01T02:28:32.045Z,16.63
2018-03-01T02:30:58.263Z,15.30
2018-03-01T02:33:24.425Z,20.83
2018-03-01T02:38:22.433Z,15.00
2018-03-01T02:40:49.365Z,17.03
2018-03-01T02:43:15.567Z,24.17
2018-03-01T02:45:41.798Z,20.47
2018-03-01T02:48:07.949Z,20.47
2018-03-01T02:50:34.906Z,16.20
2018-03-01T02:53:01.060Z,18.63
2018-03-01T02:55:27.233Z,17.63
2018-03-01T02:57:53.380Z,19.10
2018-03-01T03:00:19.616Z,18.57
2018-03-01T03:02:46.540Z,18.67
2018-03-01T03:05:12.732Z,15.90
2018-03-01T03:07:38.909Z,16.73
2018-03-01T03:10:05.060Z,21.07
2018-03-01T03:12:32.052Z,16.50
2018-03-01T03:14:58.261Z,19.77
2018-03-01T03:17:24.489Z,18.23
2018-03-01T03:19:50.645Z,17.50
2018-03-01T03:22:16.836Z,16.80
2018-03-01T03:24:43.060Z,16.97
2018-03-01T03:27:09.237Z,20.37
2018-03-01T03:29:35.422Z,22.43
2018-03-01T03:32:01.587Z,19.33
2018-03-01T03:34:27.776Z,25.27
2018-03-01T03:36:53.947Z,19.70
2018-03-01T03:39:20.153Z,24.87
2018-03-01T03:41:46.323Z,22.63
2018-03-01T03:44:13.282Z,20.10
2018-03-01T03:46:39.493Z,17.30
2018-03-01T03:49:06.383Z,19.03
2018-03-01T03:51:32.591Z,13.63
2018-03-01T03:53:58.839Z,19.50
2018-03-01T03:56:25.060Z,22.43
2018-03-01T03:58:51.287Z,22.00
2018-03-01T04:01:17.553Z,17.33
2018-03-01T04:03:43.761Z,18.97
2018-03-01T04:06:09.919Z,19.27
2018-03-01T04:08:36.120Z,18.03
2018-03-01T04:11:02.267Z,22.90
2018-03-01T04:13:28.412Z,21.53
2018-03-01T04:15:55.362Z,21.00
2018-03-01T04:18:22.256Z,19.90
2018-03-01T04:20:48.473Z,18.33
2018-03-01T04:23:14.616Z,19.70
2018-03-01T04:25:40.843Z,20.10
2018-03-01T04:28:07.075Z,24.17
2018-03-01T04:30:33.266Z,23.30
2018-03-01T04:32:59.427Z,17.60
2018-03-01T04:35:25.593Z,24.33
2018-03-01T04:37:52.511Z,23.27
2018-03-01T04:40:19.010Z,16.93
2018-03-01T04:42:45.165Z,15.23
2018-03-01T04:45:16.368Z,19.67
2018-03-01T04:47:42.642Z,17.50
2018-03-01T04:50:08.859Z,17.53
2018-03-01T04:52:35.071Z,23.23
2018-03-01T04:55:01.311Z,23.43
2018-03-01T04:57:27.499Z,24.00
2018-03-01T04:59:53.754Z,17.27
2018-03-01T05:02:19.939Z,19.57
2018-03-01T05:04:46.849Z,21.60
2018-03-01T05:07:13.063Z,24.37
2018-03-01T05:09:39.254Z,19.53
2018-03-01T05:12:05.442Z,20.77
2018-03-01T05:14:31.658Z,16.63
2018-03-01T05:16:57.839Z,19.87
2018-03-01T05:19:24.008Z,20.27
2018-03-01T05:21:50.185Z,22.23
2018-03-01T05:24:17.120Z,18.37
2018-03-01T05:26:44.053Z,21.43
2018-03-01T05:29:10.244Z,18.20
2018-03-01T05:31:36.387Z,17.30
2018-03-01T05:34:02.552Z,20.77
2018-03-01T05:36:29.443Z,18.47
2018-03-01T05:38:55.613Z,17.83
2018-03-01T05:41:21.763Z,20.60
2018-03-01T05:43:47.883Z,18.90
2018-03-01T05:46:14.845Z,18.07
2018-03-01T05:48:41.004Z,18.50
2018-03-01T05:51:07.225Z,21.57
2018-03-01T05:53:33.439Z,16.73
2018-03-01T05:55:59.599Z,23.37
2018-03-01T05:58:25.736Z,17.73
2018-03-01T06:00:51.961Z,20.60
2018-03-01T06:03:18.175Z,15.20
2018-03-01T06:05:44.380Z,17.10
2018-03-01T06:08:10.615Z,19.20
2018-03-01T06:10:36.823Z,20.17
2018-03-01T06:13:02.965Z,19.43
2018-03-01T06:15:29.116Z,18.90
2018-03-01T06:17:55.315Z,19.03
2018-03-01T06:20:21.816Z,17.10
2018-03-01T06:22:48.722Z,18.77
2018-03-01T06:25:14.896Z,19.20
2018-03-01T06:27:41.068Z,26.93
2018-03-01T06:30:07.256Z,19.40
2018-03-01T06:32:33.449Z,17.93
2018-03-01T06:34:59.628Z,20.43
2018-03-01T06:37:25.794Z,15.83
2018-03-01T06:39:52.004Z,19.47
2018-03-01T06:42:18.195Z,14.37
2018-03-01T06:44:44.351Z,20.60
2018-03-01T06:47:10.555Z,20.03
2018-03-01T06:49:36.698Z,21.60
2018-03-01T06:52:02.925Z,19.67
2018-03-01T06:54:29.160Z,14.27
2018-03-01T06:56:57.041Z,21.87
2018-03-01T06:59:23.180Z,22.23
2018-03-01T07:01:49.301Z,28.50
2018-03-01T07:04:15.495Z,26.07
2018-03-01T07:06:41.727Z,16.83
2018-03-01T07:09:07.903Z,24.13
2018-03-01T07:11:34.872Z,23.50
2018-03-01T07:14:01.651Z,22.53
2018-03-01T07:16:27.787Z,18.67
2018-03-01T07:18:53.946Z,20.53
2018-03-01T07:21:20.874Z,21.30
2018-03-01T07:23:47.845Z,23.67
2018-03-01T07:26:14.723Z,22.00
2018-03-01T07:28:40.848Z,22.20
2018-03-01T07:31:07.011Z,19.53
2018-03-01T07:33:33.216Z,19.00
2018-03-01T07:35:59.377Z,22.93
2018-03-01T07:38:26.284Z,19.97
2018-03-01T07:40:52.505Z,22.53
2018-03-01T07:43:18.686Z,20.47
2018-03-01T07:45:45.601Z,20.70
2018-03-01T07:48:11.847Z,19.70
2018-03-01T07:50:38.778Z,25.10
2018-03-01T07:53:05.133Z,20.60
2018-03-01T07:55:32.071Z,28.23
2018-03-01T07:57:58.993Z,25.23
2018-03-01T08:00:25.123Z,26.43
2018-03-01T08:02:51.289Z,22.00
2018-03-01T08:05:18.325Z,26.90
2018-03-01T08:07:45.271Z,21.97
2018-03-01T08:10:12.880Z,24.37
2018-03-01T08:12:39.055Z,24.60
2018-03-01T08:15:05.978Z,22.07
2018-03-01T08:17:32.170Z,17.00
2018-03-01T08:19:58.387Z,17.70
2018-03-01T08:22:24.520Z,21.50
2018-03-01T08:24:50.751Z,25.60
2018-03-01T08:27:16.987Z,21.70
2018-03-01T08:29:43.137Z,24.57
2018-03-01T08:32:09.316Z,22.50
2018-03-01T08:34:35.488Z,25.23
2018-03-01T08:37:01.663Z,26.70
2018-03-01T08:39:27.911Z,21.97
2018-03-01T08:41:54.116Z,23.60
2018-03-01T08:44:21.051Z,21.93
2018-03-01T08:46:47.944Z,25.17
2018-03-01T08:49:14.242Z,22.90
2018-03-01T08:51:40.450Z,26.20
2018-03-01T08:54:07.402Z,21.53
2018-03-01T08:56:34.279Z,22.73
2018-03-01T08:59:00.464Z,23.53
2018-03-01T09:01:27.473Z,21.00
2018-03-01T09:03:53.706Z,22.10
2018-03-01T09:06:19.855Z,27.03
2018-03-01T09:08:46.013Z,22.60
2018-03-01T09:11:12.137Z,23.27
2018-03-01T09:13:38.346Z,23.83
2018-03-01T09:16:05.225Z,29.10
2018-03-01T09:18:31.455Z,27.47
2018-03-01T09:20:57.613Z,21.90
2018-03-01T09:23:23.807Z,24.33
2018-03-01T09:25:50.033Z,21.70
2018-03-01T09:28:16.184Z,34.27
2018-03-01T09:30:42.406Z,23.77
2018-03-01T09:33:08.632Z,22.20
2018-03-01T09:35:34.852Z,23.80
2018-03-01T09:38:01.123Z,28.83
2018-03-01T09:40:27.359Z,18.77
2018-03-01T09:42:54.298Z,33.73
2018-03-01T09:45:20.489Z,24.67
2018-03-01T09:47:46.617Z,19.83
2018-03-01T09:50:12.830Z,20.67
2018-03-01T09:52:39.027Z,26.53
2018-03-01T09:55:06.027Z,23.60
2018-03-01T09:57:32.180Z,24.53
2018-03-01T09:59:58.334Z,23.33
2018-03-01T10:02:25.276Z,26.40
2018-03-01T10:04:52.167Z,22.20
2018-03-01T10:07:18.292Z,37.33
2018-03-01T10:09:44.467Z,26.27
2018-03-01T10:12:11.405Z,22.43
2018-03-01T10:14:37.579Z,26.03
2018-03-01T10:17:03.777Z,19.27
2018-03-01T10:19:30.722Z,24.47
2018-03-01T10:21:56.924Z,25.87
2018-03-01T10:24:23.889Z,25.77
2018-03-01T10:26:50.800Z,26.07
2018-03-01T10:29:16.993Z,23.13
2018-03-01T10:31:43.191Z,22.87
2018-03-01T10:34:10.112Z,28.80
2018-03-01T10:36:37.022Z,26.93
2018-03-01T10:39:03.313Z,23.00
2018-03-01T10:41:29.642Z,29.23
2018-03-01T10:43:56.594Z,27.43
2018-03-01T10:46:23.512Z,24.43
2018-03-01T10:48:50.490Z,24.90
2018-03-01T10:51:16.707Z,21.33
2018-03-01T10:53:42.907Z,19.17
2018-03-01T10:56:09.041Z,22.33
2018-03-01T10:58:35.955Z,26.43
2018-03-01T11:01:02.233Z,24.60
2018-03-01T11:03:28.430Z,24.23
2018-03-01T11:05:55.372Z,30.60
2018-03-01T11:08:21.548Z,27.10
2018-03-01T11:10:47.755Z,22.07
2018-03-01T11:13:14.736Z,27.70
2018-03-01T11:15:40.899Z,23.33
2018-03-01T11:18:07.128Z,22.80
2018-03-01T11:20:33.419Z,27.83
2018-03-01T11:22:59.628Z,24.70
2018-03-01T11:25:26.587Z,26.23
2018-03-01T11:27:52.718Z,33.67
2018-03-01T11:30:18.858Z,25.67
2018-03-01T11:32:45.099Z,27.50
2018-03-01T11:35:11.316Z,36.00
2018-03-01T11:37:37.527Z,25.63
2018-03-01T11:40:03.660Z,27.47
2018-03-01T11:42:29.793Z,27.43
2018-03-01T11:44:55.939Z,32.30
2018-03-01T11:47:22.114Z,21.33
2018-03-01T11:49:48.318Z,26.80
2018-03-01T11:52:15.287Z,25.17
2018-03-01T11:54:41.478Z,26.10
2018-03-01T11:57:07.655Z,27.77
2018-03-01T11:59:33.804Z,20.07
2018-03-01T12:02:00.048Z,35.60
2018-03-01T12:04:26.264Z,23.23
2018-03-01T12:06:52.400Z,23.33
2018-03-01T12:09:18.598Z,27.53
2018-03-01T12:11:44.871Z,29.00
2018-03-01T12:14:10.964Z,27.20
2018-03-01T12:16:37.155Z,29.77
2018-03-01T12:19:03.391Z,28.30
2018-03-01T12:21:29.556Z,28.43
2018-03-01T12:23:55.735Z,32.33
2018-03-01T12:26:21.935Z,27.23
2018-03-01T12:28:48.872Z,27.53
2018-03-01T12:31:15.786Z,30.50
2018-03-01T12:33:42.018Z,26.80
2018-03-01T12:36:08.199Z,25.53
2018-03-01T12:38:35.144Z,23.03
2018-03-01T12:41:02.098Z,32.03
2018-03-01T12:43:28.979Z,27.00
2018-03-01T12:45:55.111Z,27.00
2018-03-01T12:48:21.311Z,26.50
2018-03-01T12:50:47.535Z,26.67
2018-03-01T12:53:13.757Z,26.27
2018-03-01T12:55:40.717Z,27.27
2018-03-01T12:58:06.944Z,25.20
2018-03-01T13:00:33.268Z,24.47
2018-03-01T13:02:59.540Z,29.97
2018-03-01T13:05:25.759Z,31.83
2018-03-01T13:07:52.034Z,36.43
2018-03-01T13:10:18.998Z,35.10
2018-03-01T13:12:45.235Z,27.20
2018-03-01T13:15:11.409Z,31.37
2018-03-01T13:17:38.423Z,29.13
2018-03-01T13:20:04.624Z,32.03
2018-03-01T13:22:31.621Z,30.70
2018-03-01T13:24:58.583Z,35.93
2018-03-01T13:27:24.834Z,30.00
2018-03-01T13:29:51.788Z,27.47
2018-03-01T13:35:21.395Z,28.47
2018-03-01T13:37:48.372Z,28.50
2018-03-01T13:40:14.536Z,29.93
2018-03-01T13:42:40.734Z,25.37
2018-03-01T13:45:06.938Z,34.93
2018-03-01T13:47:36.922Z,35.10
2018-03-01T13:50:03.124Z,29.87
2018-03-01T13:52:29.328Z,28.90
2018-03-01T13:54:55.492Z,33.17
2018-03-01T13:57:21.656Z,27.50
2018-03-01T13:59:48.579Z,29.93
2018-03-01T14:02:14.748Z,32.30
2018-03-01T14:04:40.914Z,31.30
2018-03-01T14:10:10.449Z,33.70
2018-03-01T14:12:52.531Z,47.47
2018-03-01T14:15:18.723Z,35.93
2018-03-01T14:17:51.032Z,32.83
2018-03-01T14:20:21.216Z,36.03
2018-03-01T14:23:07.388Z,32.57
2018-03-01T14:25:37.512Z,35.80
2018-03-01T14:28:09.334Z,32.60
2018-03-01T14:30:37.414Z,59.07
2018-03-01T14:33:03.590Z,41.40
2018-03-01T14:35:29.703Z,33.03
2018-03-01T14:37:56.592Z,38.57
2018-03-01T14:40:22.783Z,38.33
2018-03-01T14:42:49.679Z,49.50
2018-03-01T14:45:15.898Z,47.67
2018-03-01T14:47:42.099Z,36.70
2018-03-01T14:50:08.315Z,37.80
2018-03-01T14:52:34.552Z,43.80
2018-03-01T14:55:00.754Z,38.10
2018-03-01T14:57:27.798Z,32.63
2018-03-01T14:59:54.756Z,34.87
2018-03-01T15:02:20.966Z,36.70
2018-03-01T15:04:47.952Z,30.00
2018-03-01T15:07:14.821Z,31.60
2018-03-01T15:09:41.031Z,33.33
2018-03-01T15:12:07.177Z,35.23
2018-03-01T15:14:33.442Z,31.70
2018-03-01T15:17:00.358Z,30.43
2018-03-01T15:19:27.667Z,32.80
2018-03-01T15:21:53.938Z,28.83
2018-03-01T15:24:20.100Z,32.30
2018-03-01T15:26:47.083Z,35.47
2018-03-01T15:29:13.237Z,37.30
2018-03-01T15:31:39.464Z,33.17
2018-03-01T15:34:05.619Z,34.30
2018-03-01T15:36:32.508Z,35.50
2018-03-01T15:38:58.676Z,31.53
2018-03-01T15:41:24.836Z,31.67
2018-03-01T15:43:52.393Z,34.33
2018-03-01T15:46:18.569Z,34.00
2018-03-01T15:48:44.756Z,32.67
2018-03-01T15:51:10.931Z,29.77
2018-03-01T15:53:37.070Z,29.53
2018-03-01T15:56:03.201Z,37.30
2018-03-01T15:58:29.414Z,43.00
2018-03-01T16:00:55.609Z,35.50
2018-03-01T16:03:21.784Z,39.83
2018-03-01T16:05:47.946Z,34.20
2018-03-01T16:08:14.160Z,37.00
2018-03-01T16:10:40.416Z,31.10
2018-03-01T16:13:06.946Z,33.83
2018-03-01T16:15:33.395Z,32.63
2018-03-01T16:18:00.658Z,38.73
2018-03-01T16:20:27.159Z,30.83
2018-03-01T16:22:53.651Z,33.10
2018-03-01T16:25:20.184Z,31.87
2018-03-01T16:27:46.606Z,33.17
2018-03-01T16:30:12.970Z,33.67
2018-03-01T16:32:39.385Z,36.37
2018-03-01T16:35:05.886Z,29.93
2018-03-01T16:37:32.340Z,33.00
2018-03-01T16:39:58.758Z,31.13
2018-03-01T16:42:25.186Z,35.17
2018-03-01T16:44:52.266Z,29.83
2018-03-01T16:47:18.685Z,34.10
2018-03-01T16:49:45.223Z,30.70
2018-03-01T16:52:11.432Z,27.67
2018-03-01T16:54:37.894Z,35.00
2018-03-01T16:57:04.386Z,29.07
2018-03-01T16:59:30.731Z,36.33
2018-03-01T17:01:57.267Z,36.33
2018-03-01T17:04:23.677Z,34.43
2018-03-01T17:06:50.119Z,30.63
2018-03-01T17:09:16.511Z,35.33
2018-03-01T17:11:42.946Z,25.57
2018-03-01T17:14:09.307Z,35.87
2018-03-01T17:16:35.668Z,30.23
2018-03-01T17:19:02.036Z,28.80
2018-03-01T17:21:29.167Z,36.37
2018-03-01T17:23:55.608Z,32.63
2018-03-01T17:26:22.787Z,28.73
2018-03-01T17:28:50.057Z,31.63
2018-03-01T17:31:16.509Z,32.60
2018-03-01T17:33:43.008Z,27.10
2018-03-01T17:36:09.491Z,28.03
2018-03-01T17:38:36.395Z,28.63
2018-03-01T17:41:02.630Z,35.13
2018-03-01T17:43:28.851Z,31.27
2018-03-01T17:45:54.980Z,31.50
2018-03-01T17:48:21.175Z,30.73
2018-03-01T17:50:48.089Z,33.47
2018-03-01T17:53:14.274Z,34.57
2018-03-01T17:55:40.519Z,45.77
2018-03-01T17:58:06.716Z,37.10
2018-03-01T18:00:33.685Z,118.73
2018-03-01T18:02:59.941Z,34.70
2018-03-01T18:05:26.114Z,30.10
2018-03-01T18:07:53.020Z,35.73
2018-03-01T18:10:20.161Z,35.33
2018-03-01T18:12:46.409Z,37.67
2018-03-01T18:15:12.588Z,34.43
2018-03-01T18:17:38.759Z,31.43
2018-03-01T18:20:04.907Z,35.23
2018-03-01T18:22:32.201Z,30.27
2018-03-01T18:24:58.424Z,33.10
2018-03-01T18:27:24.596Z,30.47
2018-03-01T18:29:50.798Z,32.10
2018-03-01T18:32:17.022Z,30.83
2018-03-01T18:34:43.207Z,43.00
2018-03-01T18:37:10.075Z,33.70
2018-03-01T18:39:36.242Z,33.77
2018-03-01T18:42:02.389Z,35.50
2018-03-01T18:44:29.328Z,35.00
2018-03-01T18:46:56.304Z,35.43
2018-03-01T18:49:22.522Z,33.60
2018-03-01T18:51:49.466Z,34.73
2018-03-01T18:54:16.432Z,36.13
2018-03-01T18:56:42.591Z,37.20
2018-03-01T18:59:08.772Z,33.83
2018-03-01T19:01:35.040Z,39.20
2018-03-01T19:04:01.304Z,35.37
2018-03-01T19:06:28.241Z,38.80
2018-03-01T19:08:54.451Z,36.77
2018-03-01T19:11:20.645Z,38.17
2018-03-01T19:13:46.827Z,36.33
2018-03-01T19:16:13.016Z,40.10
2018-03-01T19:18:39.156Z,35.37
2018-03-01T19:21:05.284Z,36.77
2018-03-01T19:23:31.584Z,31.40
2018-03-01T19:25:58.668Z,43.50
2018-03-01T19:28:24.872Z,35.00
2018-03-01T19:30:51.072Z,41.37
2018-03-01T19:33:17.987Z,35.97
2018-03-01T19:35:44.222Z,36.80
2018-03-01T19:38:11.319Z,36.43
2018-03-01T19:40:38.537Z,33.70
2018-03-01T19:43:05.019Z,36.07
2018-03-01T19:45:31.460Z,37.30
2018-03-01T19:47:58.554Z,31.57
2018-03-01T19:50:24.980Z,34.53
2018-03-01T19:52:51.409Z,37.83
2018-03-01T19:55:17.831Z,36.63
2018-03-01T19:57:44.931Z,41.60
2018-03-01T20:00:11.465Z,31.73
2018-03-01T20:02:37.901Z,34.57
2018-03-01T20:05:04.214Z,41.00
2018-03-01T20:07:30.767Z,38.43
2018-03-01T20:09:58.132Z,34.07
2018-03-01T20:12:24.572Z,41.63
2018-03-01T20:14:51.193Z,55.53
2018-03-01T20:17:17.681Z,36.43
2018-03-01T20:19:44.058Z,47.17
2018-03-01T20:22:10.507Z,49.77
2018-03-01T20:24:37.102Z,38.70
2018-03-01T20:27:04.272Z,46.00
2018-03-01T20:29:31.596Z,39.90
2018-03-01T20:31:58.702Z,42.93
2018-03-01T20:34:25.159Z,62.60
2018-03-01T20:36:52.254Z,45.83
2018-03-01T20:39:18.715Z,39.97
2018-03-01T20:41:45.194Z,42.67
2018-03-01T20:44:12.381Z,39.23
2018-03-01T20:46:39.574Z,40.63
2018-03-01T20:49:06.024Z,37.03
2018-03-01T20:51:33.213Z,46.63
2018-03-01T20:53:59.399Z,38.70
2018-03-01T20:56:26.324Z,38.33
2018-03-01T20:58:52.499Z,45.90
2018-03-01T21:01:18.940Z,35.47
2018-03-01T21:03:45.276Z,40.87
2018-03-01T21:06:12.589Z,39.97
2018-03-01T21:08:39.002Z,40.10
2018-03-01T21:11:05.399Z,43.73
2018-03-01T21:13:31.937Z,37.30
2018-03-01T21:15:59.292Z,44.23
2018-03-01T21:18:25.671Z,37.17
2018-03-01T21:20:52.094Z,34.73
2018-03-01T21:23:18.563Z,39.47
2018-03-01T21:25:45.017Z,37.00
2018-03-01T21:28:11.361Z,42.93
2018-03-01T21:30:37.735Z,39.57
2018-03-01T21:33:03.974Z,42.90
2018-03-01T21:35:30.452Z,40.40
2018-03-01T21:37:56.771Z,34.70
2018-03-01T21:40:23.046Z,44.17
2018-03-01T21:42:49.484Z,34.90
2018-03-01T21:45:16.599Z,48.77
2018-03-01T21:47:42.960Z,38.20
2018-03-01T21:50:10.203Z,36.20
2018-03-01T21:52:36.449Z,36.27
2018-03-01T21:55:03.078Z,34.60
2018-03-01T21:57:30.269Z,36.03
2018-03-01T21:59:56.747Z,39.00
2018-03-01T22:02:23.141Z,39.57
2018-03-01T22:04:50.053Z,42.83
2018-03-01T22:07:16.447Z,40.40
2018-03-01T22:09:42.854Z,37.77
2018-03-01T22:12:09.192Z,36.67
2018-03-01T22:14:35.698Z,41.97
2018-03-01T22:17:02.900Z,31.23
2018-03-01T22:19:29.085Z,37.20
2018-03-01T22:21:55.988Z,32.27
2018-03-01T22:24:22.184Z,33.90
2018-03-01T22:26:48.343Z,38.87
2018-03-01T22:29:14.512Z,37.90
2018-03-01T22:31:40.677Z,32.03
2018-03-01T22:34:06.938Z,39.67
2018-03-01T22:36:33.852Z,35.60
2018-03-01T22:39:00.043Z,38.60
2018-03-01T22:41:26.238Z,39.07
2018-03-01T22:43:52.409Z,38.30
2018-03-01T22:46:18.590Z,36.60
2018-03-01T22:48:44.823Z,36.70
2018-03-01T22:51:11.049Z,31.33
2018-03-01T22:53:37.211Z,38.90
2018-03-01T22:56:03.415Z,37.07
2018-03-01T22:58:30.374Z,35.80
2018-03-01T23:00:56.578Z,33.00
2018-03-01T23:03:22.769Z,31.67
2018-03-01T23:05:49.014Z,38.37
2018-03-01T23:08:15.228Z,35.70
2018-03-01T23:10:41.461Z,35.23
2018-03-01T23:13:07.629Z,34.77
2018-03-01T23:15:34.521Z,38.47
2018-03-01T23:18:00.743Z,33.60
2018-03-01T23:20:26.916Z,38.93
2018-03-01T23:22:53.072Z,37.17
2018-03-01T23:25:19.979Z,36.13
2018-03-01T23:27:46.231Z,32.50
2018-03-01T23:30:13.228Z,37.93
2018-03-01T23:32:39.407Z,40.83
2018-03-01T23:35:06.396Z,37.33
2018-03-01T23:37:32.540Z,37.70
2018-03-01T23:39:58.715Z,37.27
2018-03-01T23:42:24.900Z,40.67
2018-03-01T23:44:51.113Z,37.00
2018-03-01T23:47:17.282Z,37.10
2018-03-01T23:49:44.183Z,32.43
2018-03-01T23:52:10.429Z,40.83
2018-03-01T23:54:36.622Z,38.57
2018-03-01T23:57:02.868Z,40.23
2018-03-01T23:59:29.028Z,35.27
